Lynradar: storm image Ingen tordenbyger registrert..

Live Updates Error: clientraw.txt file has not been updated for 36 hours, 51 minutes.
We are currently fixing technical difficulties. Live updates will resume soon.



Vårt webkamera mer informasjon My webcam


Kamera på Foreneset mer informasjon webcam on foreneset


Lynradar mer informasjon blitzortung!


Nedbørsradar  rain snow radar


Besøk vår andre værside:

Alternativ webside

iphone versjon

Nettbrett versjon

Foreneset
verstasjon



Ikke nødvendig med spesiell oppmerksomhet.    Det er ingen advarsler

Nære METAR rapporter

     
ENZV - Stavanger
oppdatert: 16-11-2018 05:50
For det meste skyet  
For det meste skyet  
   Vind: SSØ 6.2 m/s
Vind: SSØ 6.2 m/s
Temperatur: 9°C
Wind Chill: 6°C
Duggpunkt: 5°C
Fuktighet: 76%
Barometer: 1027 hPa
Skyer: For det meste skyet
Sikt: mer enn 10 km
Skydetaljer: For det meste skyet 609.6 m
ENZV 160450Z 15012KT 9999 BKN020 09/05 Q1027
ENHD - Haugesund
oppdatert: 16-11-2018 05:50
Overskyet  
Overskyet  
   Vind: SSØ 8.2 m/s
Vind: SSØ 8.2 m/s
Temperatur: 11°C
Duggpunkt: 6°C
Fuktighet: 72%
Barometer: 1026 hPa
Skyer: Overskyet
Sikt: mer enn 10 km
Skydetaljer: Overskyet 457.2 m
ENHD 160450Z AUTO 16016KT 9999 OVC015/// 11/06 Q1026
ENBR - Bergen
oppdatert: 16-11-2018 05:50
For det meste skyet  
For det meste skyet  
   Vind: Sør 10.3 m/s
Vind: Sør 10.3 m/s
Temperatur: 11°C
Duggpunkt: 7°C
Fuktighet: 77%
Barometer: 1024 hPa
Skyer: For det meste skyet
Sikt: mer enn 10 km
Skydetaljer: For det meste skyet 640.1 m
ENBR 160450Z 17020KT 9999 BKN021 11/07 Q1024 RMK WIND 1200FT 16029G41KT
ENCN - Kristiansand
oppdatert: 16-11-2018 05:50
For det meste skyet  
For det meste skyet  
   Vind: ØNØ 3.1 m/s
Vind: ØNØ 3.1 m/s
Temperatur: 6°C
Wind Chill: 4°C
Duggpunkt: 6°C
Fuktighet: 100%
Barometer: 1030 hPa
Skyer: For det meste skyet
Sikt: 6 km
Skydetaljer: Delvis Skyet 396.2 m,
For det meste skyet 548.6 m
ENCN 160450Z 06006KT 6000 SCT013 BKN018 06/06 Q1030
ENGM - Oslo
oppdatert: 16-11-2018 05:50
Delvis Skyet  
Delvis Skyet  
   Vind: Stille
Vind: Stille
Temperatur: 6°C
Duggpunkt: 4°C
Fuktighet: 87%
Barometer: 1029 hPa
Skyer: Delvis Skyet
Sikt: mer enn 10 km
Skydetaljer: Delvis Skyet 548.6 m
ENGM 160450Z 00000KT 9999 SCT018 06/04 Q1029 NOSIG
ENVA - Trondheim
oppdatert: 16-11-2018 06:20
Klart  
Klart  
   Vind: Øst 3.1 m/s
Vind: Øst 3.1 m/s
Temperatur: 10°C
Wind Chill: 8°C
Duggpunkt: 2°C
Fuktighet: 58%
Barometer: 1019 hPa
Sikt: mer enn 10 km
Skydetaljer: Klart
ENVA 160520Z 08006KT CAVOK 10/02 Q1019 RMK WIND 670FT 15005KT
    

Script utviklet av  Saratoga-weather.org Tilrettelagt for malen av  Weerstation Leuven

Du finner vår vær info også på:

UK Metoffice

European Weather Network

WeatherCloud

Weather Underground

Utstyr vi bruker:

Værstsjon
Davis VP2

Værprogram
Weather Display

Davis VP2

Weather Display